Indian Creek, Florida
Current Conditions -  °F | °C
As of 9:53 AM on Saturday 22 Nov 2014 (Local Time) from KOPF Reporting Station
Overcast Overcast  
Wind Chill: 78°   Ceiling: 3900
Heat Index: 80°   Visibility: 10mi
Dew Point: 69°   Wind: 18mph
Humidity: 74%   Direction: 100°E
Pressure: 30.19"   Gusts: 28mph
Location:  25.882°N, 80.1292°W
Report Text: KOPF 221453Z 10016G24KT 10SM SCT025 BKN039 OVC047 26/21 A3019 RMK AO2 PK WND 09028/1443 RAB14E48 SLP223 P0000 60000 T02560206 53008
Loading
Personal Weather Stations






























Interactive Weather Map New forecast layout! Learn more

10-Day Weather Forecast

Advertisements
Track Severe Weather on mobile